createdAt,value
2019-01-27T00:05:58.946Z,5.60
2019-01-27T00:07:22.508Z,5.60
2019-01-27T00:08:46.014Z,5.60
2019-01-27T00:10:09.632Z,5.60
2019-01-27T00:11:33.143Z,5.60
2019-01-27T00:12:56.709Z,5.60
2019-01-27T00:16:39.514Z,5.50
2019-01-27T00:18:03.097Z,5.50
2019-01-27T00:19:26.666Z,5.50
2019-01-27T00:21:08.070Z,5.50
2019-01-27T00:22:31.581Z,5.40
2019-01-27T00:23:55.149Z,5.50
2019-01-27T00:25:18.722Z,5.50
2019-01-27T00:26:41.942Z,5.50
2019-01-27T00:28:05.447Z,5.50
2019-01-27T00:29:28.940Z,5.50
2019-01-27T00:30:52.446Z,5.50
2019-01-27T00:32:15.958Z,5.50
2019-01-27T00:33:39.458Z,5.50
2019-01-27T00:36:47.283Z,5.50
2019-01-27T00:38:10.924Z,5.50
2019-01-27T00:39:34.421Z,5.50
2019-01-27T00:40:58.011Z,5.50
2019-01-27T00:42:21.563Z,5.50
2019-01-27T00:43:45.066Z,5.50
2019-01-27T00:45:00.990Z,5.50
2019-01-27T00:46:15.623Z,5.50
2019-01-27T00:47:39.130Z,5.50
2019-01-27T00:49:02.627Z,5.50
2019-01-27T00:50:26.126Z,5.50
2019-01-27T00:51:49.710Z,5.50
2019-01-27T00:53:13.210Z,5.50
2019-01-27T00:54:36.709Z,5.50
2019-01-27T00:56:00.297Z,5.50
2019-01-27T00:58:48.170Z,5.50
2019-01-27T01:00:13.282Z,5.50
2019-01-27T01:01:36.806Z,5.50
2019-01-27T01:03:00.383Z,5.50
2019-01-27T01:04:23.879Z,5.50
2019-01-27T01:05:47.390Z,5.50
2019-01-27T01:07:11.079Z,5.40
2019-01-27T01:08:34.664Z,5.50
2019-01-27T01:09:58.230Z,5.50
2019-01-27T01:11:21.742Z,5.50
2019-01-27T01:12:45.237Z,5.50
2019-01-27T01:14:08.822Z,5.50
2019-01-27T01:15:32.322Z,5.50
2019-01-27T01:16:55.831Z,5.50
2019-01-27T01:18:19.402Z,5.50
2019-01-27T01:19:42.911Z,5.50
2019-01-27T01:21:06.514Z,5.50
2019-01-27T01:24:14.494Z,5.60
2019-01-27T01:25:38.061Z,5.60
2019-01-27T01:27:19.230Z,5.60
2019-01-27T01:28:42.806Z,5.60
2019-01-27T01:30:06.657Z,5.60
2019-01-27T01:31:30.237Z,5.60
2019-01-27T01:32:53.739Z,5.60
2019-01-27T01:34:17.262Z,5.60
2019-01-27T01:35:40.849Z,5.60
2019-01-27T01:37:04.730Z,5.60
2019-01-27T01:38:28.251Z,5.60
2019-01-27T01:39:51.750Z,5.60
2019-01-27T01:41:15.249Z,5.60
2019-01-27T01:42:38.830Z,5.60
2019-01-27T01:44:02.402Z,5.60
2019-01-27T01:45:19.105Z,5.60
2019-01-27T01:46:35.775Z,5.60
2019-01-27T01:47:52.462Z,5.60
2019-01-27T01:49:09.080Z,5.60
2019-01-27T01:50:25.704Z,5.60
2019-01-27T01:51:42.202Z,5.60
2019-01-27T01:52:58.817Z,5.70
2019-01-27T01:54:15.394Z,5.70
2019-01-27T01:55:32.152Z,5.70
2019-01-27T01:56:47.163Z,5.70
2019-01-27T01:58:10.678Z,5.70
2019-01-27T01:59:34.190Z,5.70
2019-01-27T02:00:57.690Z,5.70
2019-01-27T02:02:21.208Z,5.70
2019-01-27T02:03:44.786Z,5.70
2019-01-27T02:05:08.749Z,5.70
2019-01-27T02:06:32.241Z,5.70
2019-01-27T02:07:55.750Z,5.70
2019-01-27T02:09:19.253Z,5.70
2019-01-27T02:10:42.835Z,5.70
2019-01-27T02:12:06.335Z,5.70
2019-01-27T02:13:29.834Z,5.70
2019-01-27T02:14:53.325Z,5.70
2019-01-27T02:16:16.999Z,5.70
2019-01-27T02:17:40.506Z,5.70
2019-01-27T02:19:04.075Z,5.70
2019-01-27T02:20:27.638Z,5.70
2019-01-27T02:21:51.138Z,5.70
2019-01-27T02:23:14.647Z,5.70
2019-01-27T02:24:38.146Z,5.70
2019-01-27T02:26:01.639Z,5.70
2019-01-27T02:27:25.138Z,5.70
2019-01-27T02:28:48.532Z,5.70
2019-01-27T02:31:54.862Z,5.70
2019-01-27T02:33:18.452Z,5.70
2019-01-27T02:34:41.946Z,5.70
2019-01-27T02:36:05.616Z,5.70
2019-01-27T02:37:29.119Z,5.70
2019-01-27T02:38:52.609Z,5.70
2019-01-27T02:40:16.170Z,5.70
2019-01-27T02:41:39.667Z,5.70
2019-01-27T02:43:03.168Z,5.70
2019-01-27T02:44:26.681Z,5.70
2019-01-27T02:45:50.179Z,5.70
2019-01-27T02:47:13.676Z,5.70
2019-01-27T02:48:37.172Z,5.70
2019-01-27T02:50:00.676Z,5.60
2019-01-27T02:51:24.179Z,5.70
2019-01-27T02:52:47.687Z,5.70
2019-01-27T02:54:11.197Z,5.60
2019-01-27T02:55:34.696Z,5.60
2019-01-27T02:56:58.193Z,5.60
2019-01-27T02:58:21.684Z,5.60
2019-01-27T02:59:45.195Z,5.60
2019-01-27T03:01:08.684Z,5.60
2019-01-27T03:02:32.169Z,5.50
2019-01-27T03:03:55.660Z,5.50
2019-01-27T03:05:38.327Z,5.50
2019-01-27T03:10:56.988Z,5.50
2019-01-27T03:12:20.484Z,5.50
2019-01-27T03:13:43.986Z,5.50
2019-01-27T03:15:07.963Z,5.50
2019-01-27T03:16:31.458Z,5.50
2019-01-27T03:17:54.979Z,5.50
2019-01-27T03:19:18.484Z,5.50
2019-01-27T03:20:42.012Z,5.50
2019-01-27T03:22:05.592Z,5.50
2019-01-27T03:23:29.080Z,5.50
2019-01-27T03:24:52.574Z,5.50
2019-01-27T03:26:16.262Z,5.50
2019-01-27T03:27:39.751Z,5.40
2019-01-27T03:29:03.255Z,5.40
2019-01-27T03:30:26.755Z,5.30
2019-01-27T03:31:50.390Z,5.40
2019-01-27T03:33:15.451Z,5.40
2019-01-27T03:36:58.255Z,5.40
2019-01-27T03:38:21.760Z,5.40
2019-01-27T03:41:09.672Z,5.40
2019-01-27T03:42:33.163Z,5.40
2019-01-27T03:43:56.656Z,5.40
2019-01-27T03:45:12.612Z,5.40
2019-01-27T03:46:48.279Z,5.40
2019-01-27T03:48:04.384Z,5.40
2019-01-27T03:49:20.353Z,5.40
2019-01-27T03:52:33.711Z,5.40
2019-01-27T03:54:08.770Z,5.40
2019-01-27T03:55:25.251Z,5.40
2019-01-27T03:56:41.214Z,5.40
2019-01-27T03:57:55.797Z,5.40
2019-01-27T03:59:19.332Z,5.40
2019-01-27T04:00:42.819Z,5.40
2019-01-27T04:02:06.395Z,5.40
2019-01-27T04:03:29.887Z,5.40
2019-01-27T04:04:53.380Z,5.40
2019-01-27T04:06:16.947Z,5.40
2019-01-27T04:07:40.454Z,5.40
2019-01-27T04:11:09.245Z,5.40
2019-01-27T04:12:32.748Z,5.40
2019-01-27T04:13:56.239Z,5.30
2019-01-27T04:15:19.798Z,5.30
2019-01-27T04:16:43.363Z,5.30
2019-01-27T04:18:06.866Z,5.30
2019-01-27T04:20:54.672Z,5.30
2019-01-27T04:22:18.247Z,5.30
2019-01-27T04:23:41.738Z,5.20
2019-01-27T04:25:05.402Z,5.30
2019-01-27T04:28:48.564Z,5.20
2019-01-27T04:32:16.914Z,5.10
2019-01-27T04:33:40.425Z,5.10
2019-01-27T04:37:08.121Z,5.00
2019-01-27T04:38:31.628Z,5.00
2019-01-27T04:39:55.122Z,5.00
2019-01-27T04:41:18.686Z,5.00
2019-01-27T04:42:42.177Z,5.00
2019-01-27T04:44:05.755Z,4.90
2019-01-27T04:45:28.490Z,4.90
2019-01-27T04:46:44.796Z,4.90
2019-01-27T04:48:00.918Z,4.90
2019-01-27T04:49:17.119Z,4.90
2019-01-27T04:50:33.094Z,4.90
2019-01-27T04:51:49.066Z,4.90
2019-01-27T04:53:05.620Z,4.90
2019-01-27T04:54:22.166Z,4.90
2019-01-27T04:55:38.835Z,4.90
2019-01-27T04:56:55.331Z,4.80
2019-01-27T04:58:11.460Z,4.90
2019-01-27T04:59:27.267Z,4.90
2019-01-27T05:02:42.558Z,4.90
2019-01-27T05:04:03.360Z,4.90
2019-01-27T05:05:19.304Z,4.90
2019-01-27T05:06:35.937Z,4.90
2019-01-27T05:07:52.598Z,4.90
2019-01-27T05:10:49.312Z,4.90
2019-01-27T05:12:05.875Z,4.90
2019-01-27T05:13:22.415Z,4.90
2019-01-27T05:14:39.161Z,4.90
2019-01-27T05:15:55.798Z,4.90
2019-01-27T05:18:28.518Z,4.90
2019-01-27T05:19:52.013Z,4.90
2019-01-27T05:21:15.510Z,4.90
2019-01-27T05:24:03.306Z,4.90
2019-01-27T05:25:26.804Z,4.90
2019-01-27T05:28:14.604Z,4.80
2019-01-27T05:29:38.117Z,4.80
2019-01-27T05:31:01.600Z,4.80
2019-01-27T05:32:25.086Z,4.80
2019-01-27T05:33:48.580Z,4.70
2019-01-27T05:35:12.082Z,4.80
2019-01-27T05:36:35.571Z,4.70
2019-01-27T05:37:59.059Z,4.70
2019-01-27T05:39:22.562Z,4.70
2019-01-27T05:40:46.062Z,4.70
2019-01-27T05:42:09.556Z,4.70
2019-01-27T05:43:33.052Z,4.60
2019-01-27T05:46:32.307Z,4.60
2019-01-27T05:47:48.611Z,4.60
2019-01-27T05:49:05.350Z,4.60
2019-01-27T05:50:41.195Z,4.60
2019-01-27T05:55:45.430Z,4.60
2019-01-27T05:57:02.032Z,4.60
2019-01-27T05:58:16.579Z,4.60
2019-01-27T05:59:40.094Z,4.60
2019-01-27T06:01:03.934Z,4.60
2019-01-27T06:02:27.502Z,4.60
2019-01-27T06:03:50.986Z,4.60
2019-01-27T06:05:14.558Z,4.60
2019-01-27T06:06:38.057Z,4.60
2019-01-27T06:08:01.549Z,4.50
2019-01-27T06:09:25.122Z,4.50
2019-01-27T06:10:48.664Z,4.40
2019-01-27T06:12:12.150Z,4.50
2019-01-27T06:13:35.659Z,4.50
2019-01-27T06:14:59.158Z,4.60
2019-01-27T06:16:22.654Z,4.60
2019-01-27T06:17:46.223Z,4.60
2019-01-27T06:19:09.718Z,4.60
2019-01-27T06:20:33.230Z,4.60
2019-01-27T06:21:56.727Z,4.60
2019-01-27T06:23:20.214Z,4.60
2019-01-27T06:26:52.211Z,4.60
2019-01-27T06:28:15.703Z,4.70
2019-01-27T06:29:39.194Z,4.70
2019-01-27T06:31:02.731Z,4.70
2019-01-27T06:32:45.322Z,4.60
2019-01-27T06:35:56.319Z,4.70
2019-01-27T06:37:24.769Z,4.70
2019-01-27T06:38:45.001Z,4.70
2019-01-27T06:40:08.587Z,4.70
2019-01-27T06:41:32.090Z,4.70
2019-01-27T06:42:55.578Z,4.70
2019-01-27T06:44:19.074Z,4.70
2019-01-27T06:45:35.274Z,4.70
2019-01-27T06:46:51.955Z,4.70
2019-01-27T06:48:08.574Z,4.70
2019-01-27T06:49:25.255Z,4.70
2019-01-27T06:50:41.839Z,4.70
2019-01-27T06:51:58.480Z,4.70
2019-01-27T06:53:15.154Z,4.70
2019-01-27T06:54:31.862Z,4.70
2019-01-27T06:59:34.727Z,4.70
2019-01-27T07:01:00.394Z,4.70
2019-01-27T07:04:32.359Z,4.80
2019-01-27T07:07:29.398Z,4.80
2019-01-27T07:09:05.173Z,4.80
2019-01-27T07:10:40.478Z,4.80
2019-01-27T07:12:15.887Z,4.80
2019-01-27T07:13:54.413Z,4.80
2019-01-27T07:17:19.452Z,4.80
2019-01-27T07:18:54.926Z,4.90
2019-01-27T07:20:30.054Z,4.90
2019-01-27T07:22:11.599Z,4.90
2019-01-27T07:23:35.851Z,4.90
2019-01-27T07:25:11.376Z,4.90
2019-01-27T07:26:46.394Z,4.90
2019-01-27T07:28:15.807Z,4.90
2019-01-27T07:33:26.266Z,4.90
2019-01-27T07:35:01.403Z,4.90
2019-01-27T07:36:36.848Z,4.90
2019-01-27T07:38:12.391Z,5.00
2019-01-27T07:39:40.765Z,4.90
2019-01-27T07:41:07.086Z,4.90
2019-01-27T07:42:33.936Z,5.00
2019-01-27T07:44:15.174Z,5.00
2019-01-27T07:45:37.793Z,5.00
2019-01-27T07:47:12.972Z,5.00
2019-01-27T07:48:42.146Z,5.00
2019-01-27T07:50:17.640Z,5.00
2019-01-27T07:51:52.639Z,5.00
2019-01-27T07:53:27.754Z,5.00
2019-01-27T07:55:03.138Z,5.10
2019-01-27T07:56:38.315Z,5.10
2019-01-27T07:58:13.978Z,5.10
2019-01-27T07:59:55.126Z,5.10
2019-01-27T08:01:20.107Z,5.20
2019-01-27T08:02:42.274Z,5.20
2019-01-27T08:04:24.854Z,5.30
2019-01-27T08:05:53.435Z,5.30
2019-01-27T08:07:36.011Z,5.30
2019-01-27T08:09:18.591Z,5.40
2019-01-27T08:11:01.185Z,5.40
2019-01-27T08:12:43.781Z,5.40
2019-01-27T08:14:26.363Z,5.40
2019-01-27T08:16:09.022Z,5.40
2019-01-27T08:17:51.607Z,5.40
2019-01-27T08:19:21.044Z,5.40
2019-01-27T08:21:03.614Z,5.50
2019-01-27T08:22:46.214Z,5.50
2019-01-27T08:24:19.538Z,5.60
2019-01-27T08:26:02.195Z,5.50
2019-01-27T08:27:44.895Z,5.50
2019-01-27T08:29:14.966Z,5.60
2019-01-27T08:30:57.544Z,5.60
2019-01-27T08:32:33.159Z,5.50
2019-01-27T08:33:57.031Z,5.60
2019-01-27T08:35:39.601Z,5.60
2019-01-27T08:37:22.197Z,5.70
2019-01-27T08:39:04.874Z,5.70
2019-01-27T08:40:47.463Z,5.60
2019-01-27T08:42:30.122Z,5.60
2019-01-27T08:44:12.710Z,5.60
2019-01-27T08:45:40.458Z,5.60
2019-01-27T08:46:58.884Z,5.60
2019-01-27T08:48:14.972Z,5.60
2019-01-27T08:49:31.466Z,5.50
2019-01-27T08:50:47.319Z,5.50
2019-01-27T08:52:03.915Z,5.50
2019-01-27T08:53:20.537Z,5.50
2019-01-27T08:54:35.094Z,5.50
2019-01-27T08:55:58.586Z,5.50
2019-01-27T08:57:22.080Z,5.50
2019-01-27T08:58:45.599Z,5.50
2019-01-27T09:04:12.639Z,5.50
2019-01-27T09:05:55.223Z,5.50
2019-01-27T09:07:37.798Z,5.50
2019-01-27T09:09:20.386Z,5.50
2019-01-27T09:11:02.966Z,5.50
2019-01-27T09:12:45.554Z,5.50
2019-01-27T09:14:28.147Z,5.50
2019-01-27T09:16:10.727Z,5.50
2019-01-27T09:17:53.322Z,5.50
2019-01-27T09:19:35.895Z,5.50
2019-01-27T09:21:18.483Z,5.60
2019-01-27T09:23:01.065Z,5.60
2019-01-27T09:24:43.655Z,5.60
2019-01-27T09:26:26.230Z,5.60
2019-01-27T09:27:57.004Z,5.70
2019-01-27T09:29:27.810Z,5.70
2019-01-27T09:31:10.429Z,5.80
2019-01-27T09:32:53.073Z,5.80
2019-01-27T09:34:35.659Z,5.90
2019-01-27T09:36:07.915Z,5.90
2019-01-27T09:37:50.491Z,5.90
2019-01-27T09:39:33.090Z,5.90
2019-01-27T09:41:04.165Z,5.90
2019-01-27T09:42:46.754Z,5.90
2019-01-27T09:44:29.511Z,5.90
2019-01-27T09:46:05.934Z,6.10
2019-01-27T09:47:32.053Z,6.20
2019-01-27T09:49:01.668Z,6.30
2019-01-27T09:50:26.659Z,6.40
2019-01-27T09:52:08.047Z,6.60
2019-01-27T09:53:43.224Z,6.70
2019-01-27T09:55:18.334Z,6.80
2019-01-27T09:56:53.365Z,6.80
2019-01-27T09:58:28.544Z,6.90
2019-01-27T09:59:50.095Z,7.00
2019-01-27T10:01:12.359Z,7.00
2019-01-27T10:02:38.804Z,7.10
2019-01-27T10:04:04.714Z,7.10
2019-01-27T10:05:29.715Z,7.20
2019-01-27T10:06:51.401Z,7.30
2019-01-27T10:08:16.718Z,7.40
2019-01-27T10:09:39.770Z,7.50
2019-01-27T10:11:05.477Z,7.60
2019-01-27T10:12:28.047Z,7.60
2019-01-27T10:15:46.570Z,7.60
2019-01-27T10:17:29.156Z,7.60
2019-01-27T10:18:59.390Z,7.50
2019-01-27T10:20:30.327Z,7.40
2019-01-27T10:22:12.915Z,7.30
2019-01-27T10:23:55.495Z,7.30
2019-01-27T10:25:38.097Z,7.10
2019-01-27T10:27:09.257Z,7.00
2019-01-27T10:28:51.834Z,7.00
2019-01-27T10:32:39.014Z,6.90
2019-01-27T10:34:21.618Z,6.80
2019-01-27T10:36:04.190Z,6.80
2019-01-27T10:37:46.801Z,6.80
2019-01-27T10:41:08.249Z,6.80
2019-01-27T10:42:39.566Z,6.80
2019-01-27T10:44:22.139Z,6.80
2019-01-27T10:45:57.221Z,6.80
2019-01-27T10:47:32.598Z,6.80
2019-01-27T10:49:02.446Z,6.80
2019-01-27T10:50:37.510Z,7.00
2019-01-27T10:52:01.343Z,6.80
2019-01-27T10:53:34.981Z,6.80
2019-01-27T10:55:11.290Z,6.70
2019-01-27T10:56:46.487Z,6.70
2019-01-27T10:58:17.045Z,6.70
2019-01-27T10:59:56.583Z,6.70
2019-01-27T11:01:39.336Z,6.70
2019-01-27T11:03:21.937Z,6.70
2019-01-27T11:05:04.586Z,6.70
2019-01-27T11:07:08.127Z,6.60
2019-01-27T11:08:50.703Z,6.50
2019-01-27T11:10:33.373Z,6.50
2019-01-27T11:12:16.004Z,6.40
2019-01-27T11:13:51.325Z,6.40
2019-01-27T11:15:33.978Z,6.40
2019-01-27T11:17:16.556Z,6.40
2019-01-27T11:18:59.142Z,6.40
2019-01-27T11:20:41.722Z,6.40
2019-01-27T11:22:24.367Z,6.40
2019-01-27T11:24:06.963Z,6.40
2019-01-27T11:25:49.541Z,6.50
2019-01-27T11:27:33.109Z,6.60
2019-01-27T11:29:13.450Z,6.80
2019-01-27T11:30:56.110Z,6.90
2019-01-27T11:32:38.687Z,7.00
2019-01-27T11:34:09.699Z,7.10
2019-01-27T11:35:52.279Z,7.20
2019-01-27T11:37:34.873Z,7.30
2019-01-27T11:39:07.787Z,7.40
2019-01-27T11:40:50.366Z,7.50
2019-01-27T11:42:32.969Z,7.60
2019-01-27T11:44:03.718Z,7.70
2019-01-27T11:45:32.798Z,7.70
2019-01-27T11:50:25.782Z,7.80
2019-01-27T11:52:03.699Z,7.90
2019-01-27T11:53:18.298Z,7.90
2019-01-27T11:54:41.786Z,8.00
2019-01-27T11:57:29.578Z,8.10
2019-01-27T11:58:53.077Z,8.20
2019-01-27T12:02:01.748Z,8.30
2019-01-27T12:03:25.264Z,8.40
2019-01-27T12:04:48.746Z,8.40
2019-01-27T12:06:12.237Z,8.50
2019-01-27T12:07:35.744Z,8.50
2019-01-27T12:08:59.250Z,8.60
2019-01-27T12:10:22.805Z,8.60
2019-01-27T12:11:46.299Z,8.60
2019-01-27T12:13:09.786Z,8.60
2019-01-27T12:14:33.278Z,8.60
2019-01-27T12:15:56.844Z,8.60
2019-01-27T12:17:20.339Z,8.50
2019-01-27T12:18:43.827Z,8.40
2019-01-27T12:20:07.698Z,8.30
2019-01-27T12:21:31.186Z,8.20
2019-01-27T12:22:54.674Z,8.10
2019-01-27T12:24:18.183Z,8.10
2019-01-27T12:25:41.670Z,7.90
2019-01-27T12:27:05.242Z,7.80
2019-01-27T12:28:28.815Z,7.70
2019-01-27T12:29:52.312Z,7.70
2019-01-27T12:31:15.818Z,7.60
2019-01-27T12:32:39.306Z,7.60
2019-01-27T12:34:02.787Z,7.50
2019-01-27T12:35:26.298Z,7.40
2019-01-27T12:36:49.781Z,7.40
2019-01-27T12:38:13.267Z,7.40
2019-01-27T12:39:36.770Z,7.40
2019-01-27T12:41:00.259Z,7.30
2019-01-27T12:42:23.741Z,7.30
2019-01-27T12:43:47.234Z,7.30
2019-01-27T12:47:01.383Z,7.40
2019-01-27T12:48:24.870Z,7.50
2019-01-27T12:49:48.366Z,7.60
2019-01-27T12:51:11.854Z,7.70
2019-01-27T12:52:35.346Z,7.70
2019-01-27T12:53:58.850Z,7.80
2019-01-27T12:55:22.426Z,7.80
2019-01-27T12:56:45.919Z,7.80
2019-01-27T12:58:09.479Z,7.80
2019-01-27T12:59:32.980Z,7.90
2019-01-27T13:01:07.562Z,7.90
2019-01-27T13:02:31.053Z,8.00
2019-01-27T13:03:54.551Z,8.00
2019-01-27T13:05:18.130Z,8.10
2019-01-27T13:06:41.621Z,8.20
2019-01-27T13:08:05.118Z,8.20
2019-01-27T13:09:28.602Z,8.30
2019-01-27T13:10:52.097Z,8.20
2019-01-27T13:12:15.615Z,8.20
2019-01-27T13:13:39.093Z,8.20
2019-01-27T13:15:02.594Z,8.10
2019-01-27T13:16:25.932Z,8.10
2019-01-27T13:17:49.491Z,8.10
2019-01-27T13:19:12.995Z,8.00
2019-01-27T13:20:36.551Z,7.90
2019-01-27T13:22:00.049Z,7.90
2019-01-27T13:23:23.534Z,7.80
2019-01-27T13:24:47.373Z,7.70
2019-01-27T13:26:10.318Z,7.60
2019-01-27T13:27:33.891Z,7.50
2019-01-27T13:28:57.378Z,7.50
2019-01-27T13:30:21.266Z,7.50
2019-01-27T13:31:44.779Z,7.40
2019-01-27T13:33:08.266Z,7.40
2019-01-27T13:34:31.759Z,7.40
2019-01-27T13:35:55.258Z,7.40
2019-01-27T13:37:18.750Z,7.40
2019-01-27T13:38:42.234Z,7.40
2019-01-27T13:40:26.549Z,7.40
2019-01-27T13:41:50.062Z,7.40
2019-01-27T13:43:13.555Z,7.40
2019-01-27T13:44:37.035Z,7.40
2019-01-27T13:45:53.442Z,7.40
2019-01-27T13:47:09.976Z,7.50
2019-01-27T13:48:26.533Z,7.40
2019-01-27T13:51:36.700Z,7.40
2019-01-27T13:52:51.298Z,7.40
2019-01-27T13:54:14.787Z,7.40
2019-01-27T13:57:21.112Z,7.40
2019-01-27T13:58:44.609Z,7.40
2019-01-27T14:02:12.955Z,7.40
2019-01-27T14:03:36.447Z,7.40
2019-01-27T14:04:59.927Z,7.30
2019-01-27T14:06:23.426Z,7.30
2019-01-27T14:07:46.985Z,7.30
2019-01-27T14:09:10.634Z,7.30
2019-01-27T14:10:34.295Z,7.30
2019-01-27T14:11:57.812Z,7.30
2019-01-27T14:15:04.571Z,7.30
2019-01-27T14:16:27.568Z,7.20
2019-01-27T14:17:51.054Z,7.20
2019-01-27T14:19:14.560Z,7.20
2019-01-27T14:20:38.122Z,7.20
2019-01-27T14:22:01.622Z,7.20
2019-01-27T14:23:25.110Z,7.20
2019-01-27T14:24:48.598Z,7.20
2019-01-27T14:26:12.171Z,7.10
2019-01-27T14:27:35.666Z,7.10
2019-01-27T14:28:59.166Z,7.10
2019-01-27T14:30:23.774Z,7.10
2019-01-27T14:31:47.278Z,7.10
2019-01-27T14:33:10.771Z,7.10
2019-01-27T14:34:34.253Z,7.10
2019-01-27T14:35:57.823Z,7.10
2019-01-27T14:37:21.327Z,7.10
2019-01-27T14:38:44.813Z,7.10
2019-01-27T14:40:28.566Z,7.20
2019-01-27T14:41:52.074Z,7.10
2019-01-27T14:43:15.622Z,7.10
2019-01-27T14:44:39.137Z,7.10
2019-01-27T14:47:50.031Z,7.10
2019-01-27T14:49:04.694Z,7.00
2019-01-27T14:50:29.430Z,6.90
2019-01-27T14:51:52.951Z,6.90
2019-01-27T14:53:16.439Z,6.90
2019-01-27T14:54:57.566Z,6.90
2019-01-27T14:56:21.049Z,6.80
2019-01-27T14:57:44.574Z,6.80
2019-01-27T14:59:08.086Z,6.80
2019-01-27T15:02:35.550Z,6.70
2019-01-27T15:03:59.030Z,6.70
2019-01-27T15:05:22.614Z,6.70
2019-01-27T15:06:46.120Z,6.70
2019-01-27T15:08:09.687Z,6.70
2019-01-27T15:09:33.266Z,6.70
2019-01-27T15:10:56.751Z,6.60
2019-01-27T15:12:20.252Z,6.60
2019-01-27T15:13:43.743Z,6.60
2019-01-27T15:15:08.666Z,6.60
2019-01-27T15:16:32.152Z,6.60
2019-01-27T15:17:55.750Z,6.60
2019-01-27T15:19:19.259Z,6.60
2019-01-27T15:20:44.467Z,6.60
2019-01-27T15:22:07.958Z,6.60
2019-01-27T15:23:31.460Z,6.60
2019-01-27T15:24:54.939Z,6.50
2019-01-27T15:26:18.503Z,6.50
2019-01-27T15:27:42.052Z,6.50
2019-01-27T15:29:05.801Z,6.50
2019-01-27T15:32:33.481Z,6.60
2019-01-27T15:33:57.022Z,6.50
2019-01-27T15:35:20.636Z,6.60
2019-01-27T15:36:44.124Z,6.50
2019-01-27T15:38:07.626Z,6.50
2019-01-27T15:39:31.127Z,6.50
2019-01-27T15:40:54.611Z,6.50
2019-01-27T15:42:18.109Z,6.50
2019-01-27T15:43:48.401Z,6.50
2019-01-27T15:47:03.207Z,6.50
2019-01-27T15:48:19.927Z,6.50
2019-01-27T15:49:35.917Z,6.50
2019-01-27T15:50:52.316Z,6.50
2019-01-27T15:52:08.799Z,6.50
2019-01-27T15:53:25.255Z,6.50
2019-01-27T15:54:41.103Z,6.50
2019-01-27T15:55:57.050Z,6.50
2019-01-27T15:57:13.018Z,6.50
2019-01-27T15:58:29.027Z,6.50
2019-01-27T15:59:43.598Z,6.50
2019-01-27T16:01:07.162Z,6.50
2019-01-27T16:02:30.705Z,6.50
2019-01-27T16:03:54.202Z,6.50
2019-01-27T16:05:18.243Z,6.50
2019-01-27T16:06:42.199Z,6.50
2019-01-27T16:08:05.780Z,6.50
2019-01-27T16:09:29.476Z,6.50
2019-01-27T16:10:52.986Z,6.50
2019-01-27T16:12:16.486Z,6.50
2019-01-27T16:13:39.983Z,6.50
2019-01-27T16:15:02.556Z,6.50
2019-01-27T16:16:26.048Z,6.50
2019-01-27T16:17:49.536Z,6.50
2019-01-27T16:19:13.041Z,6.50
2019-01-27T16:20:36.610Z,6.50
2019-01-27T16:22:00.333Z,6.50
2019-01-27T16:23:42.915Z,6.50
2019-01-27T16:25:06.972Z,6.50
2019-01-27T16:26:30.454Z,6.50
2019-01-27T16:27:53.943Z,6.50
2019-01-27T16:31:07.702Z,6.50
2019-01-27T16:32:50.282Z,6.50
2019-01-27T16:34:27.994Z,6.50
2019-01-27T16:35:51.550Z,6.50
2019-01-27T16:37:15.052Z,6.40
2019-01-27T16:38:38.559Z,6.50
2019-01-27T16:40:02.051Z,6.50
2019-01-27T16:41:25.639Z,6.40
2019-01-27T16:42:49.126Z,6.50
2019-01-27T16:45:48.002Z,6.40
2019-01-27T16:47:04.758Z,6.40
2019-01-27T16:48:21.239Z,6.40
2019-01-27T16:49:37.259Z,6.40
2019-01-27T16:50:53.853Z,6.40
2019-01-27T16:52:10.349Z,6.50
2019-01-27T16:53:26.914Z,6.50
2019-01-27T16:54:42.838Z,6.50
2019-01-27T16:57:53.646Z,6.50
2019-01-27T16:59:10.279Z,6.50
2019-01-27T17:00:26.866Z,6.50
2019-01-27T17:03:37.082Z,6.40
2019-01-27T17:06:37.703Z,6.40
2019-01-27T17:07:52.330Z,6.40
2019-01-27T17:09:15.891Z,6.40
2019-01-27T17:10:39.484Z,6.40
2019-01-27T17:12:02.976Z,6.50
2019-01-27T17:13:26.470Z,6.50
2019-01-27T17:14:49.966Z,6.50
2019-01-27T17:16:13.539Z,6.50
2019-01-27T17:17:37.036Z,6.50
2019-01-27T17:20:26.096Z,6.50
2019-01-27T17:21:50.187Z,6.50
2019-01-27T17:23:13.681Z,6.60
2019-01-27T17:24:37.162Z,6.60
2019-01-27T17:26:00.675Z,6.60
2019-01-27T17:27:24.170Z,6.60
2019-01-27T17:28:47.743Z,6.60
2019-01-27T17:32:02.534Z,6.70
2019-01-27T17:33:26.992Z,6.70
2019-01-27T17:36:35.795Z,6.70
2019-01-27T17:37:59.342Z,6.70
2019-01-27T17:39:22.835Z,6.70
2019-01-27T17:40:46.339Z,6.70
2019-01-27T17:42:09.834Z,6.80
2019-01-27T17:43:33.341Z,6.80
2019-01-27T17:44:56.849Z,6.80
2019-01-27T17:46:20.379Z,6.80
2019-01-27T17:49:27.162Z,6.80
2019-01-27T17:50:50.666Z,6.70
2019-01-27T17:52:14.167Z,6.80
2019-01-27T17:55:54.311Z,6.70
2019-01-27T17:59:29.841Z,6.70
2019-01-27T18:01:13.232Z,6.70
2019-01-27T18:04:20.126Z,6.60
2019-01-27T18:09:16.579Z,6.60
2019-01-27T18:10:59.295Z,6.50
2019-01-27T18:12:27.578Z,6.50
2019-01-27T18:14:10.163Z,6.50
2019-01-27T18:15:34.679Z,6.50
2019-01-27T18:16:58.862Z,6.50
2019-01-27T18:18:22.355Z,6.50
2019-01-27T18:19:45.848Z,6.50
2019-01-27T18:21:09.426Z,6.50
2019-01-27T18:22:32.919Z,6.50
2019-01-27T18:23:56.490Z,6.50
2019-01-27T18:25:20.076Z,6.40
2019-01-27T18:26:43.582Z,6.40
2019-01-27T18:30:24.978Z,6.40
2019-01-27T18:31:48.478Z,6.40
2019-01-27T18:33:11.992Z,6.40
2019-01-27T18:34:35.482Z,6.40
2019-01-27T18:35:59.056Z,6.40
2019-01-27T18:37:22.551Z,6.40
2019-01-27T18:38:46.059Z,6.40
2019-01-27T18:40:09.862Z,6.40
2019-01-27T18:41:33.415Z,6.40
2019-01-27T18:42:56.927Z,6.40
2019-01-27T18:44:20.423Z,6.40
2019-01-27T18:45:36.289Z,6.40
2019-01-27T18:48:36.550Z,6.40
2019-01-27T18:49:52.594Z,6.40
2019-01-27T18:51:07.311Z,6.40
2019-01-27T18:52:31.422Z,6.40
2019-01-27T18:54:15.094Z,6.40
2019-01-27T18:57:50.016Z,6.40
2019-01-27T18:59:32.603Z,6.40
2019-01-27T19:01:15.186Z,6.50
2019-01-27T19:04:38.587Z,6.40
2019-01-27T19:06:21.179Z,6.40
2019-01-27T19:07:51.394Z,6.40
2019-01-27T19:09:33.974Z,6.40
2019-01-27T19:11:16.567Z,6.50
2019-01-27T19:12:59.174Z,6.40
2019-01-27T19:14:41.777Z,6.40
2019-01-27T19:16:12.421Z,6.40
2019-01-27T19:17:55.015Z,6.40
2019-01-27T19:19:25.039Z,6.40
2019-01-27T19:20:53.718Z,6.40
2019-01-27T19:22:36.303Z,6.40
2019-01-27T19:24:01.614Z,6.40
2019-01-27T19:25:44.194Z,6.40
2019-01-27T19:27:26.861Z,6.40
2019-01-27T19:29:09.642Z,6.40
2019-01-27T19:30:52.241Z,6.40
2019-01-27T19:32:34.824Z,6.40
2019-01-27T19:34:20.495Z,6.40
2019-01-27T19:38:52.299Z,6.50
2019-01-27T19:40:34.895Z,6.50
2019-01-27T19:42:03.990Z,6.50
2019-01-27T19:43:46.660Z,6.50
2019-01-27T19:45:29.515Z,6.50
2019-01-27T19:46:54.085Z,6.50
2019-01-27T19:48:26.157Z,6.50
2019-01-27T19:50:01.231Z,6.50
2019-01-27T19:51:39.551Z,6.50
2019-01-27T19:55:09.511Z,6.50
2019-01-27T19:56:44.579Z,6.40
2019-01-27T19:58:05.267Z,6.40
2019-01-27T19:59:34.323Z,6.40
2019-01-27T20:01:16.927Z,6.40
2019-01-27T20:02:59.535Z,6.40
2019-01-27T20:04:42.130Z,6.40
2019-01-27T20:06:13.563Z,6.30
2019-01-27T20:07:56.143Z,6.30
2019-01-27T20:09:38.815Z,6.30
2019-01-27T20:11:21.480Z,6.20
2019-01-27T20:13:08.488Z,6.20
2019-01-27T20:14:48.351Z,6.20
2019-01-27T20:16:30.942Z,6.10
2019-01-27T20:18:13.607Z,6.10
2019-01-27T20:19:57.575Z,6.10
2019-01-27T20:21:40.234Z,6.10
2019-01-27T20:25:42.158Z,6.10
2019-01-27T20:27:24.817Z,6.00
2019-01-27T20:29:07.411Z,6.00
2019-01-27T20:30:50.021Z,6.00
2019-01-27T20:32:32.686Z,6.00
2019-01-27T20:34:03.710Z,6.00
2019-01-27T20:35:46.319Z,6.00
2019-01-27T20:37:16.110Z,5.90
2019-01-27T20:38:47.038Z,6.00
2019-01-27T20:40:30.409Z,5.90
2019-01-27T20:42:12.982Z,5.90
2019-01-27T20:43:55.562Z,5.90
2019-01-27T20:45:38.236Z,5.90
2019-01-27T20:47:13.938Z,5.90
2019-01-27T20:52:22.286Z,6.00
2019-01-27T20:53:57.578Z,6.00
2019-01-27T20:55:35.697Z,6.00
2019-01-27T20:56:58.050Z,6.00
2019-01-27T20:58:33.443Z,6.00
2019-01-27T21:01:36.843Z,6.00
2019-01-27T21:03:11.158Z,6.00
2019-01-27T21:04:41.282Z,6.00
2019-01-27T21:06:23.947Z,6.00
2019-01-27T21:08:05.177Z,5.90
2019-01-27T21:09:47.835Z,5.90
2019-01-27T21:11:30.419Z,5.90
2019-01-27T21:13:01.178Z,5.90
2019-01-27T21:14:43.762Z,5.90
2019-01-27T21:16:26.379Z,5.90
2019-01-27T21:18:04.083Z,5.90
2019-01-27T21:19:34.806Z,5.90
2019-01-27T21:20:58.324Z,5.90
2019-01-27T21:22:21.805Z,5.80
2019-01-27T21:23:45.299Z,5.80
2019-01-27T21:26:54.467Z,5.80
2019-01-27T21:28:17.965Z,5.70
2019-01-27T21:29:41.466Z,5.70
2019-01-27T21:31:05.047Z,5.70
2019-01-27T21:32:28.546Z,5.70
2019-01-27T21:33:52.040Z,5.70
2019-01-27T21:35:15.930Z,5.70
2019-01-27T21:36:39.491Z,5.70
2019-01-27T21:38:02.998Z,5.60
2019-01-27T21:39:27.980Z,5.60
2019-01-27T21:40:51.687Z,5.60
2019-01-27T21:42:15.194Z,5.60
2019-01-27T21:43:38.687Z,5.60